createdAt,value
2022-07-25T00:01:16.998Z,7.20
2022-07-25T00:06:23.935Z,6.67
2022-07-25T00:11:27.256Z,8.07
2022-07-25T00:16:30.458Z,9.10
2022-07-25T00:21:33.653Z,8.43
2022-07-25T00:26:40.332Z,8.33
2022-07-25T00:31:44.108Z,9.97
2022-07-25T00:36:47.312Z,8.57
2022-07-25T00:41:50.315Z,11.57
2022-07-25T00:46:54.881Z,13.63
2022-07-25T00:51:58.931Z,12.37
2022-07-25T00:57:02.231Z,8.70
2022-07-25T01:02:05.380Z,7.70
2022-07-25T01:07:08.793Z,7.90
2022-07-25T01:12:11.891Z,8.37
2022-07-25T01:17:14.931Z,7.90
2022-07-25T01:22:18.390Z,7.90
2022-07-25T01:27:21.271Z,7.43
2022-07-25T01:32:24.579Z,7.30
2022-07-25T01:37:27.933Z,7.00
2022-07-25T01:42:30.891Z,7.83
2022-07-25T01:47:34.633Z,6.67
2022-07-25T01:52:38.260Z,6.93
2022-07-25T01:57:49.453Z,7.73
2022-07-25T02:03:13.188Z,8.03
2022-07-25T02:08:16.469Z,7.70
2022-07-25T02:13:20.370Z,7.30
2022-07-25T02:18:23.670Z,9.27
2022-07-25T02:23:26.632Z,7.77
2022-07-25T02:28:29.912Z,9.73
2022-07-25T02:33:33.012Z,8.90
2022-07-25T02:38:35.985Z,9.37
2022-07-25T02:43:39.282Z,10.43
2022-07-25T02:48:42.579Z,9.60
2022-07-25T02:54:01.170Z,9.73
2022-07-25T02:59:04.601Z,9.80
2022-07-25T03:04:07.796Z,9.60
2022-07-25T03:09:11.571Z,10.17
2022-07-25T03:14:14.505Z,10.13
2022-07-25T03:19:18.032Z,9.80
2022-07-25T03:24:20.951Z,9.63
2022-07-25T03:29:23.903Z,9.67
2022-07-25T03:34:27.232Z,9.70
2022-07-25T03:39:30.651Z,10.13
2022-07-25T03:44:33.651Z,11.40
2022-07-25T03:49:36.851Z,9.57
2022-07-25T03:54:41.762Z,9.43
2022-07-25T03:59:45.106Z,9.63
2022-07-25T04:04:48.154Z,10.33
2022-07-25T04:09:51.550Z,12.47
2022-07-25T04:14:54.579Z,14.33
2022-07-25T04:19:57.791Z,16.03
2022-07-25T04:25:01.071Z,17.57
2022-07-25T04:30:04.450Z,18.13
2022-07-25T04:35:08.253Z,17.83
2022-07-25T04:40:12.069Z,19.40
2022-07-25T04:45:17.791Z,16.30
2022-07-25T04:50:24.821Z,14.07
2022-07-25T04:55:28.391Z,12.45
2022-07-25T05:00:32.421Z,12.98
2022-07-25T05:05:36.126Z,12.27
2022-07-25T05:10:39.370Z,12.55
2022-07-25T05:15:42.574Z,12.52
2022-07-25T05:20:46.151Z,12.30
2022-07-25T05:25:49.924Z,11.88
2022-07-25T05:30:54.411Z,12.30
2022-07-25T05:35:57.562Z,11.10
2022-07-25T05:41:00.534Z,9.30
2022-07-25T05:46:05.209Z,8.07
2022-07-25T05:51:08.172Z,7.95
2022-07-25T05:56:11.611Z,7.72
2022-07-25T06:01:16.462Z,7.43
2022-07-25T06:06:19.950Z,6.78
2022-07-25T06:11:22.920Z,5.75
2022-07-25T06:16:26.770Z,5.50
2022-07-25T06:21:30.011Z,5.50
2022-07-25T06:26:33.152Z,4.95
2022-07-25T06:31:36.210Z,4.13
2022-07-25T06:36:39.414Z,3.90
2022-07-25T06:41:43.030Z,3.42
2022-07-25T06:46:46.492Z,3.42
2022-07-25T06:51:50.169Z,3.40
2022-07-25T06:56:53.110Z,3.55
2022-07-25T07:01:56.542Z,3.75
2022-07-25T07:06:59.727Z,2.75
2022-07-25T07:12:03.473Z,3.25
2022-07-25T07:18:00.547Z,2.92
2022-07-25T07:23:03.834Z,3.20
2022-07-25T07:28:07.616Z,2.97
2022-07-25T07:33:11.015Z,3.03
2022-07-25T07:38:14.110Z,3.10
2022-07-25T07:43:17.056Z,3.33
2022-07-25T07:48:20.352Z,2.80
2022-07-25T07:53:23.678Z,2.83
2022-07-25T07:58:26.808Z,2.78
2022-07-25T08:03:29.930Z,2.53
2022-07-25T08:08:33.631Z,2.60
2022-07-25T08:13:43.050Z,3.17
2022-07-25T08:18:46.252Z,2.97
2022-07-25T08:23:52.571Z,2.63
2022-07-25T08:29:17.116Z,3.30
2022-07-25T08:34:22.148Z,2.80
2022-07-25T08:39:25.761Z,3.00
2022-07-25T08:44:33.929Z,2.70
2022-07-25T08:49:37.212Z,3.08
2022-07-25T08:54:41.159Z,2.30
2022-07-25T08:59:45.231Z,2.67
2022-07-25T09:04:54.232Z,2.50
2022-07-25T09:09:58.070Z,2.28
2022-07-25T09:15:01.149Z,2.30
2022-07-25T09:20:08.823Z,2.20
2022-07-25T09:25:31.573Z,2.22
2022-07-25T09:30:36.251Z,2.30
2022-07-25T09:35:41.123Z,2.20
2022-07-25T09:40:58.449Z,2.08
2022-07-25T09:46:02.571Z,2.03
2022-07-25T09:51:06.900Z,1.75
2022-07-25T09:56:10.129Z,1.77
2022-07-25T10:01:19.663Z,2.15
2022-07-25T10:06:37.810Z,1.83
2022-07-25T10:11:41.710Z,1.73
2022-07-25T10:16:49.293Z,2.00
2022-07-25T10:21:56.290Z,1.70
2022-07-25T10:27:22.551Z,2.08
2022-07-25T10:32:33.112Z,1.42
2022-07-25T10:37:37.794Z,1.20
2022-07-25T10:42:46.950Z,1.45
2022-07-25T10:47:56.271Z,1.60
2022-07-25T10:53:01.093Z,1.90
2022-07-25T10:58:17.526Z,1.40
2022-07-25T11:03:22.281Z,1.50
2022-07-25T11:08:34.870Z,1.42
2022-07-25T11:13:39.958Z,1.83
2022-07-25T11:18:43.422Z,1.60
2022-07-25T11:23:54.086Z,1.52
2022-07-25T11:28:57.273Z,1.45
2022-07-25T11:34:00.598Z,1.60
2022-07-25T11:39:04.353Z,1.73
2022-07-25T11:44:08.451Z,1.25
2022-07-25T11:49:12.998Z,1.45
2022-07-25T11:54:17.016Z,1.50
2022-07-25T11:59:20.169Z,2.03
2022-07-25T12:04:23.358Z,1.48
2022-07-25T12:09:26.562Z,1.52
2022-07-25T12:14:35.125Z,1.48
2022-07-25T12:19:41.477Z,1.15
2022-07-25T12:24:44.614Z,1.30
2022-07-25T12:29:47.768Z,1.33
2022-07-25T12:34:51.711Z,1.88
2022-07-25T12:39:55.510Z,1.23
2022-07-25T12:44:58.963Z,1.30
2022-07-25T12:50:02.483Z,1.20
2022-07-25T12:55:10.933Z,1.40
2022-07-25T13:00:16.898Z,1.20
2022-07-25T13:05:20.903Z,1.70
2022-07-25T13:10:24.646Z,1.65
2022-07-25T13:15:28.577Z,1.58
2022-07-25T13:20:35.803Z,1.27
2022-07-25T13:25:38.711Z,1.17
2022-07-25T13:30:41.610Z,1.20
2022-07-25T13:35:45.147Z,1.52
2022-07-25T13:40:48.290Z,1.30
2022-07-25T13:45:51.471Z,1.30
2022-07-25T13:50:54.803Z,1.20
2022-07-25T13:55:59.659Z,1.30
2022-07-25T14:01:03.078Z,1.83
2022-07-25T14:06:09.299Z,1.30
2022-07-25T14:11:12.442Z,1.30
2022-07-25T14:16:17.773Z,1.50
2022-07-25T14:21:20.911Z,1.40
2022-07-25T14:26:24.433Z,1.20
2022-07-25T14:31:27.773Z,1.23
2022-07-25T14:36:33.990Z,1.10
2022-07-25T14:41:46.773Z,1.95
2022-07-25T14:47:01.963Z,1.60
2022-07-25T14:52:07.391Z,1.13
2022-07-25T14:57:10.991Z,1.10
2022-07-25T15:02:14.571Z,1.27
2022-07-25T15:07:17.730Z,1.40
2022-07-25T15:12:21.431Z,1.45
2022-07-25T15:17:25.040Z,1.50
2022-07-25T15:22:28.432Z,1.40
2022-07-25T15:27:32.454Z,1.33
2022-07-25T15:32:35.555Z,1.15
2022-07-25T15:37:38.731Z,1.30
2022-07-25T15:42:44.770Z,1.25
2022-07-25T15:47:55.106Z,1.33
2022-07-25T15:52:59.152Z,1.40
2022-07-25T15:58:03.958Z,2.08
2022-07-25T16:03:08.152Z,1.65
2022-07-25T16:08:11.514Z,1.75
2022-07-25T16:13:14.952Z,1.73
2022-07-25T16:18:18.549Z,1.70
2022-07-25T16:23:23.494Z,1.60
2022-07-25T16:28:27.390Z,2.10
2022-07-25T16:33:30.928Z,1.48
2022-07-25T16:38:35.225Z,1.52
2022-07-25T16:43:38.451Z,1.50
2022-07-25T16:48:42.186Z,1.80
2022-07-25T16:53:45.191Z,1.27
2022-07-25T16:58:49.290Z,1.65
2022-07-25T17:03:54.838Z,1.80
2022-07-25T17:08:59.055Z,1.70
2022-07-25T17:14:04.939Z,1.52
2022-07-25T17:19:08.539Z,2.17
2022-07-25T17:24:12.110Z,1.65
2022-07-25T17:29:17.678Z,1.70
2022-07-25T17:34:22.212Z,2.20
2022-07-25T17:39:26.519Z,2.03
2022-07-25T17:44:29.592Z,2.63
2022-07-25T17:49:32.691Z,1.75
2022-07-25T17:54:36.238Z,1.98
2022-07-25T17:59:39.371Z,2.10
2022-07-25T18:04:42.395Z,2.20
2022-07-25T18:09:45.785Z,2.10
2022-07-25T18:14:48.973Z,2.10
2022-07-25T18:19:52.312Z,2.07
2022-07-25T18:24:55.550Z,2.10
2022-07-25T18:29:58.770Z,2.15
2022-07-25T18:35:01.954Z,2.40
2022-07-25T18:40:07.289Z,2.07
2022-07-25T18:45:11.252Z,2.60
2022-07-25T18:50:14.494Z,2.10
2022-07-25T18:55:17.697Z,2.05
2022-07-25T19:00:20.831Z,2.00
2022-07-25T19:05:23.866Z,2.40
2022-07-25T19:10:27.371Z,2.42
2022-07-25T19:15:30.722Z,2.13
2022-07-25T19:20:34.995Z,2.40
2022-07-25T19:25:39.031Z,2.72
2022-07-25T19:30:42.075Z,2.75
2022-07-25T19:35:47.470Z,2.40
2022-07-25T19:40:50.950Z,2.95
2022-07-25T19:45:54.241Z,2.60
2022-07-25T19:50:57.555Z,2.75
2022-07-25T19:56:01.841Z,3.35
2022-07-25T20:01:05.029Z,4.45
2022-07-25T20:06:08.936Z,3.50
2022-07-25T20:11:12.525Z,3.38
2022-07-25T20:16:16.259Z,3.47
2022-07-25T20:21:19.972Z,3.17
2022-07-25T20:26:23.431Z,3.33
2022-07-25T20:31:27.341Z,3.20
2022-07-25T20:36:32.373Z,2.92
2022-07-25T20:41:39.643Z,3.88
2022-07-25T20:46:45.124Z,3.55
2022-07-25T20:51:54.696Z,3.50
2022-07-25T20:56:59.822Z,3.30
2022-07-25T21:02:04.650Z,3.80
2022-07-25T21:07:08.986Z,4.07
2022-07-25T21:12:14.493Z,3.67
2022-07-25T21:17:17.884Z,4.25
2022-07-25T21:22:22.505Z,3.55
2022-07-25T21:27:26.203Z,4.03
2022-07-25T21:32:30.444Z,3.35
2022-07-25T21:37:33.932Z,3.65
2022-07-25T21:42:37.671Z,3.80
2022-07-25T21:47:40.682Z,3.80
2022-07-25T21:52:44.042Z,3.88
2022-07-25T21:57:48.957Z,3.55
2022-07-25T22:02:52.252Z,3.70
2022-07-25T22:07:55.407Z,3.45
2022-07-25T22:12:58.499Z,3.92
2022-07-25T22:18:02.002Z,3.55
2022-07-25T22:23:05.145Z,3.53
2022-07-25T22:28:14.120Z,3.75
2022-07-25T22:33:17.683Z,3.90
2022-07-25T22:38:21.171Z,3.83
2022-07-25T22:43:24.471Z,3.75
2022-07-25T22:48:48.246Z,3.65
2022-07-25T22:53:51.760Z,3.22
2022-07-25T22:58:55.081Z,3.53
2022-07-25T23:03:58.566Z,3.47
2022-07-25T23:09:02.056Z,3.20
2022-07-25T23:14:05.402Z,4.05
2022-07-25T23:19:08.846Z,3.80
2022-07-25T23:24:12.481Z,3.92
2022-07-25T23:29:15.961Z,3.38
2022-07-25T23:34:19.157Z,3.47
2022-07-25T23:39:22.453Z,3.80
2022-07-25T23:44:26.491Z,3.33
2022-07-25T23:49:32.291Z,3.70
2022-07-25T23:54:35.848Z,3.10
2022-07-25T23:59:39.159Z,3.75
